createdAt,value
2022-10-22T00:01:13.433Z,14.16
2022-10-22T00:03:49.230Z,14.16
2022-10-22T00:09:09.053Z,14.11
2022-10-22T00:12:04.543Z,14.04
2022-10-22T00:14:45.483Z,14.02
2022-10-22T00:17:17.677Z,13.96
2022-10-22T00:20:14.050Z,13.97
2022-10-22T00:22:49.889Z,13.90
2022-10-22T00:25:23.160Z,13.85
2022-10-22T00:27:54.571Z,13.81
2022-10-22T00:30:28.542Z,13.82
2022-10-22T00:33:12.035Z,13.79
2022-10-22T00:36:01.337Z,13.72
2022-10-22T00:38:31.397Z,13.72
2022-10-22T00:41:07.627Z,13.71
2022-10-22T00:44:13.076Z,13.72
2022-10-22T00:46:49.086Z,13.71
2022-10-22T00:49:38.923Z,13.71
2022-10-22T00:52:13.561Z,13.70
2022-10-22T00:54:49.259Z,13.71
2022-10-22T00:57:19.986Z,13.71
2022-10-22T00:59:52.026Z,13.72
2022-10-22T01:02:30.990Z,13.71
2022-10-22T01:07:48.794Z,13.69
2022-10-22T01:10:50.232Z,13.60
2022-10-22T01:13:33.200Z,13.65
2022-10-22T01:16:15.514Z,13.68
2022-10-22T01:18:56.118Z,13.68
2022-10-22T01:21:51.252Z,13.70
2022-10-22T01:24:51.614Z,13.68
2022-10-22T01:27:58.766Z,13.64
2022-10-22T01:30:35.462Z,13.64
2022-10-22T01:33:08.263Z,13.62
2022-10-22T01:35:42.206Z,13.60
2022-10-22T01:38:15.586Z,13.55
2022-10-22T01:40:49.228Z,13.56
2022-10-22T01:43:18.599Z,13.56
2022-10-22T01:45:58.263Z,13.56
2022-10-22T01:48:47.310Z,13.59
2022-10-22T01:51:40.310Z,13.60
2022-10-22T01:54:29.317Z,13.56
2022-10-22T02:00:06.778Z,13.62
2022-10-22T02:03:00.767Z,13.65
2022-10-22T02:05:38.019Z,13.67
2022-10-22T02:08:11.574Z,13.67
2022-10-22T02:10:51.433Z,13.71
2022-10-22T02:16:17.054Z,13.76
2022-10-22T02:18:52.664Z,13.73
2022-10-22T02:24:14.610Z,13.73
2022-10-22T02:26:53.349Z,13.61
2022-10-22T02:29:40.572Z,13.69
2022-10-22T02:32:16.228Z,13.68
2022-10-22T02:34:51.438Z,13.65
2022-10-22T02:37:22.021Z,13.62
2022-10-22T02:40:06.768Z,13.56
2022-10-22T02:42:38.223Z,13.56
2022-10-22T02:45:24.303Z,13.47
2022-10-22T02:48:02.397Z,13.42
2022-10-22T02:50:37.749Z,13.44
2022-10-22T02:53:20.163Z,13.41
2022-10-22T02:55:50.384Z,13.40
2022-10-22T02:58:19.720Z,13.36
2022-10-22T03:00:50.285Z,13.32
2022-10-22T03:03:20.163Z,13.26
2022-10-22T03:05:51.862Z,13.27
2022-10-22T03:08:22.952Z,13.27
2022-10-22T03:10:53.434Z,13.24
2022-10-22T03:13:22.933Z,13.21
2022-10-22T03:15:52.643Z,13.21
2022-10-22T03:18:20.833Z,13.22
2022-10-22T03:20:50.715Z,13.21
2022-10-22T03:23:21.762Z,13.17
2022-10-22T03:25:50.965Z,13.15
2022-10-22T03:28:22.238Z,13.13
2022-10-22T03:30:53.996Z,13.13
2022-10-22T03:33:32.160Z,13.07
2022-10-22T03:36:03.639Z,13.05
2022-10-22T03:38:33.843Z,13.02
2022-10-22T03:41:02.699Z,12.94
2022-10-22T03:43:33.776Z,13.03
2022-10-22T03:46:03.475Z,13.04
2022-10-22T03:48:36.569Z,13.03
2022-10-22T03:51:06.915Z,13.04
2022-10-22T03:53:38.324Z,13.02
2022-10-22T03:56:18.564Z,13.00
2022-10-22T03:58:46.863Z,12.97
2022-10-22T04:01:18.039Z,12.98
2022-10-22T04:06:45.296Z,12.98
2022-10-22T04:09:13.803Z,12.98
2022-10-22T04:11:44.021Z,12.97
2022-10-22T04:14:13.947Z,12.98
2022-10-22T04:16:45.382Z,13.00
2022-10-22T04:19:15.381Z,13.00
2022-10-22T04:21:46.214Z,13.00
2022-10-22T04:24:16.488Z,12.99
2022-10-22T04:26:46.015Z,12.93
2022-10-22T04:29:16.499Z,13.01
2022-10-22T04:31:45.252Z,13.00
2022-10-22T04:34:16.311Z,12.92
2022-10-22T04:36:47.686Z,13.01
2022-10-22T04:39:21.261Z,13.02
2022-10-22T04:41:56.217Z,12.95
2022-10-22T04:44:29.787Z,13.02
2022-10-22T04:46:59.171Z,13.02
2022-10-22T04:49:28.767Z,13.02
2022-10-22T04:52:04.732Z,13.05
2022-10-22T04:54:34.601Z,13.04
2022-10-22T04:57:19.496Z,13.04
2022-10-22T04:59:47.694Z,13.07
2022-10-22T05:02:17.156Z,13.02
2022-10-22T05:04:46.328Z,13.05
2022-10-22T05:07:17.800Z,12.98
2022-10-22T05:09:48.471Z,13.06
2022-10-22T05:12:24.250Z,13.06
2022-10-22T05:14:54.231Z,13.09
2022-10-22T05:17:27.785Z,13.06
2022-10-22T05:19:56.651Z,13.07
2022-10-22T05:22:27.685Z,13.02
2022-10-22T05:25:17.700Z,13.05
2022-10-22T05:28:04.569Z,12.96
2022-10-22T05:30:36.313Z,13.01
2022-10-22T05:33:06.265Z,12.99
2022-10-22T05:35:46.589Z,12.96
2022-10-22T05:38:16.629Z,12.97
2022-10-22T05:40:46.765Z,12.97
2022-10-22T05:43:20.181Z,12.97
2022-10-22T05:45:50.230Z,12.96
2022-10-22T05:48:19.979Z,12.94
2022-10-22T05:50:51.696Z,12.90
2022-10-22T05:53:25.436Z,12.86
2022-10-22T05:55:53.999Z,12.86
2022-10-22T05:58:22.508Z,12.86
2022-10-22T06:00:51.758Z,12.97
2022-10-22T06:03:22.618Z,12.98
2022-10-22T06:05:53.288Z,12.97
2022-10-22T06:08:23.801Z,12.94
2022-10-22T06:10:59.750Z,12.95
2022-10-22T06:13:28.388Z,13.01
2022-10-22T06:15:58.513Z,13.00
2022-10-22T06:18:34.074Z,13.04
2022-10-22T06:21:09.354Z,13.02
2022-10-22T06:26:26.500Z,13.08
2022-10-22T06:28:57.176Z,13.15
2022-10-22T06:31:27.486Z,13.18
2022-10-22T06:33:59.407Z,13.23
2022-10-22T06:36:27.904Z,13.22
2022-10-22T06:39:17.515Z,13.32
2022-10-22T06:41:48.044Z,13.36
2022-10-22T06:44:18.846Z,13.41
2022-10-22T06:47:10.918Z,13.43
2022-10-22T06:49:42.779Z,13.41
2022-10-22T06:52:11.108Z,13.36
2022-10-22T06:57:47.362Z,13.48
2022-10-22T07:00:25.459Z,13.50
2022-10-22T07:02:59.177Z,13.56
2022-10-22T07:05:56.540Z,13.54
2022-10-22T07:08:36.850Z,13.68
2022-10-22T07:11:22.394Z,13.75
2022-10-22T07:17:10.526Z,13.88
2022-10-22T07:19:48.415Z,14.01
2022-10-22T07:22:39.081Z,14.09
2022-10-22T07:25:25.232Z,14.15
2022-10-22T07:27:57.644Z,14.30
2022-10-22T07:30:33.400Z,14.37
2022-10-22T07:33:09.372Z,14.41
2022-10-22T07:35:42.947Z,14.47
2022-10-22T07:38:18.142Z,14.52
2022-10-22T07:40:53.251Z,14.57
2022-10-22T07:43:48.310Z,14.55
2022-10-22T07:49:34.809Z,14.72
2022-10-22T07:52:14.314Z,14.79
2022-10-22T07:55:09.853Z,14.83
2022-10-22T07:57:53.169Z,14.89
2022-10-22T08:01:02.127Z,14.95
2022-10-22T08:03:38.583Z,14.96
2022-10-22T08:06:22.186Z,15.06
2022-10-22T08:09:16.542Z,15.12
2022-10-22T08:11:47.912Z,15.30
2022-10-22T08:17:26.941Z,15.48
2022-10-22T08:20:09.595Z,15.56
2022-10-22T08:22:48.741Z,15.60
2022-10-22T08:25:22.218Z,15.69
2022-10-22T08:27:55.505Z,15.72
2022-10-22T08:30:34.399Z,15.79
2022-10-22T08:33:07.406Z,15.87
2022-10-22T08:35:44.319Z,15.92
2022-10-22T08:38:21.481Z,15.97
2022-10-22T08:40:59.939Z,16.00
2022-10-22T08:43:51.168Z,16.05
2022-10-22T08:47:09.377Z,16.09
2022-10-22T08:52:44.065Z,16.17
2022-10-22T08:58:06.072Z,16.18
2022-10-22T09:00:50.505Z,16.27
2022-10-22T09:03:57.507Z,16.26
2022-10-22T09:10:16.357Z,16.41
2022-10-22T09:12:52.135Z,16.46
2022-10-22T09:15:23.763Z,16.56
2022-10-22T09:18:27.383Z,16.63
2022-10-22T09:21:06.432Z,16.70
2022-10-22T09:24:09.441Z,16.77
2022-10-22T09:26:52.041Z,16.86
2022-10-22T09:29:43.092Z,16.94
2022-10-22T09:32:14.059Z,17.06
2022-10-22T09:35:05.747Z,17.15
2022-10-22T09:37:47.130Z,17.20
2022-10-22T09:43:21.921Z,17.29
2022-10-22T09:46:20.561Z,17.38
2022-10-22T09:49:08.649Z,17.45
2022-10-22T09:52:15.139Z,17.55
2022-10-22T09:54:50.915Z,17.63
2022-10-22T09:57:30.371Z,17.79
2022-10-22T10:00:10.089Z,17.99
2022-10-22T10:02:42.858Z,18.18
2022-10-22T10:05:25.849Z,18.27
2022-10-22T10:07:54.551Z,18.32
2022-10-22T10:10:42.117Z,18.36
2022-10-22T10:16:51.279Z,18.43
2022-10-22T10:19:48.061Z,18.48
2022-10-22T10:22:34.633Z,18.60
2022-10-22T10:25:40.866Z,18.54
2022-10-22T10:28:36.054Z,18.59
2022-10-22T10:31:19.193Z,18.54
2022-10-22T10:33:58.213Z,18.52
2022-10-22T10:36:37.233Z,18.48
2022-10-22T10:40:08.785Z,18.48
2022-10-22T10:42:47.507Z,18.52
2022-10-22T10:45:29.469Z,18.50
2022-10-22T10:48:38.319Z,18.51
2022-10-22T10:57:24.587Z,18.65
2022-10-22T11:00:06.005Z,18.67
2022-10-22T11:03:41.944Z,18.72
2022-10-22T11:06:13.603Z,18.89
2022-10-22T11:08:50.022Z,18.89
2022-10-22T11:11:23.629Z,18.83
2022-10-22T11:13:59.191Z,18.76
2022-10-22T11:16:41.424Z,18.65
2022-10-22T11:19:33.181Z,18.68
2022-10-22T11:22:16.373Z,18.62
2022-10-22T11:24:52.037Z,18.55
2022-10-22T11:27:31.715Z,18.55
2022-10-22T11:30:05.177Z,18.55
2022-10-22T11:32:34.465Z,18.57
2022-10-22T11:35:09.311Z,18.54
2022-10-22T11:37:39.162Z,18.42
2022-10-22T11:43:09.926Z,18.01
2022-10-22T11:45:40.925Z,17.81
2022-10-22T11:48:18.862Z,17.67
2022-10-22T11:50:53.058Z,17.57
2022-10-22T11:53:31.784Z,17.50
2022-10-22T11:56:21.492Z,17.49
2022-10-22T12:01:44.496Z,17.58
2022-10-22T12:04:24.323Z,17.68
2022-10-22T12:07:03.121Z,17.74
2022-10-22T12:09:34.478Z,17.87
2022-10-22T12:12:22.396Z,18.07
2022-10-22T12:14:56.752Z,18.27
2022-10-22T12:17:48.571Z,18.36
2022-10-22T12:20:20.574Z,18.43
2022-10-22T12:22:53.766Z,18.41
2022-10-22T12:25:35.509Z,18.40
2022-10-22T12:28:06.302Z,18.35
2022-10-22T12:30:35.956Z,18.31
2022-10-22T12:33:07.798Z,18.20
2022-10-22T12:35:43.873Z,18.08
2022-10-22T12:38:26.949Z,18.10
2022-10-22T12:40:58.650Z,18.12
2022-10-22T12:43:38.588Z,18.10
2022-10-22T12:46:13.824Z,18.18
2022-10-22T12:48:45.263Z,18.10
2022-10-22T12:51:21.640Z,18.16
2022-10-22T12:53:57.458Z,18.09
2022-10-22T12:56:35.557Z,18.11
2022-10-22T13:01:53.713Z,18.29
2022-10-22T13:04:39.755Z,18.38
2022-10-22T13:07:22.346Z,18.67
2022-10-22T13:10:01.090Z,18.76
2022-10-22T13:12:46.322Z,18.90
2022-10-22T13:15:40.434Z,18.84
2022-10-22T13:18:25.468Z,18.80
2022-10-22T13:21:01.723Z,19.15
2022-10-22T13:23:37.041Z,19.58
2022-10-22T13:26:16.511Z,19.47
2022-10-22T13:28:55.226Z,19.33
2022-10-22T13:31:27.149Z,19.27
2022-10-22T13:34:08.529Z,19.24
2022-10-22T13:36:39.405Z,19.21
2022-10-22T13:39:11.887Z,19.27
2022-10-22T13:41:42.999Z,19.33
2022-10-22T13:44:18.858Z,19.28
2022-10-22T13:46:47.909Z,19.30
2022-10-22T13:49:29.133Z,19.28
2022-10-22T13:51:59.174Z,19.37
2022-10-22T13:54:33.692Z,19.43
2022-10-22T13:57:03.411Z,19.47
2022-10-22T13:59:41.363Z,19.29
2022-10-22T14:02:13.037Z,19.16
2022-10-22T14:04:43.780Z,19.12
2022-10-22T14:07:15.755Z,19.20
2022-10-22T14:09:46.289Z,19.21
2022-10-22T14:12:18.419Z,19.25
2022-10-22T14:14:46.983Z,19.23
2022-10-22T14:17:17.216Z,19.21
2022-10-22T14:19:58.864Z,19.26
2022-10-22T14:22:29.554Z,19.27
2022-10-22T14:24:58.068Z,19.29
2022-10-22T14:27:27.896Z,19.36
2022-10-22T14:29:59.532Z,19.43
2022-10-22T14:32:36.824Z,19.31
2022-10-22T14:35:11.844Z,19.12
2022-10-22T14:37:43.887Z,18.94
2022-10-22T14:40:16.169Z,18.88
2022-10-22T14:42:55.684Z,18.80
2022-10-22T14:45:28.242Z,18.57
2022-10-22T14:48:00.480Z,18.50
2022-10-22T14:50:29.202Z,18.51
2022-10-22T14:52:59.821Z,18.56
2022-10-22T14:55:29.207Z,18.62
2022-10-22T14:57:59.064Z,18.72
2022-10-22T15:00:27.969Z,18.81
2022-10-22T15:02:58.094Z,18.92
2022-10-22T15:05:28.003Z,18.95
2022-10-22T15:08:01.490Z,19.05
2022-10-22T15:10:44.546Z,19.00
2022-10-22T15:13:55.896Z,18.99
2022-10-22T15:16:29.402Z,18.93
2022-10-22T15:19:02.303Z,18.93
2022-10-22T15:21:30.691Z,18.89
2022-10-22T15:23:59.066Z,18.91
2022-10-22T15:26:28.039Z,18.77
2022-10-22T15:29:06.365Z,18.60
2022-10-22T15:31:47.644Z,18.38
2022-10-22T15:34:20.929Z,18.27
2022-10-22T15:36:49.394Z,18.15
2022-10-22T15:42:52.355Z,17.87
2022-10-22T15:45:22.675Z,17.74
2022-10-22T15:47:50.897Z,17.61
2022-10-22T15:50:19.446Z,17.42
2022-10-22T15:52:47.927Z,17.37
2022-10-22T15:55:16.415Z,17.23
2022-10-22T15:57:45.896Z,17.04
2022-10-22T16:00:16.089Z,17.00
2022-10-22T16:02:45.751Z,16.93
2022-10-22T16:05:13.994Z,16.86
2022-10-22T16:07:42.990Z,16.75
2022-10-22T16:10:12.991Z,16.65
2022-10-22T16:13:06.812Z,16.53
2022-10-22T16:15:36.484Z,16.44
2022-10-22T16:18:15.677Z,16.33
2022-10-22T16:20:46.744Z,16.27
2022-10-22T16:23:18.843Z,16.14
2022-10-22T16:25:47.298Z,16.05
2022-10-22T16:28:16.215Z,15.85
2022-10-22T16:30:44.530Z,15.79
2022-10-22T16:33:14.770Z,15.69
2022-10-22T16:35:52.789Z,15.67
2022-10-22T16:38:21.180Z,15.54
2022-10-22T16:40:50.473Z,15.40
2022-10-22T16:43:18.929Z,15.39
2022-10-22T16:45:50.324Z,15.26
2022-10-22T16:48:20.379Z,15.16
2022-10-22T16:50:48.596Z,15.06
2022-10-22T16:53:16.819Z,15.03
2022-10-22T16:59:02.606Z,14.85
2022-10-22T17:01:30.888Z,14.85
2022-10-22T17:04:02.192Z,14.73
2022-10-22T17:06:30.617Z,14.63
2022-10-22T17:08:59.041Z,14.54
2022-10-22T17:11:30.067Z,14.38
2022-10-22T17:13:58.513Z,14.40
2022-10-22T17:16:26.824Z,14.36
2022-10-22T17:19:04.532Z,14.45
2022-10-22T17:21:41.429Z,14.48
2022-10-22T17:24:25.392Z,14.47
2022-10-22T17:26:53.664Z,14.44
2022-10-22T17:29:22.082Z,14.38
2022-10-22T17:31:50.295Z,14.37
2022-10-22T17:34:42.411Z,14.39
2022-10-22T17:37:12.971Z,14.49
2022-10-22T17:39:48.668Z,14.48
2022-10-22T17:42:17.045Z,14.41
2022-10-22T17:44:54.280Z,14.31
2022-10-22T17:47:23.250Z,14.24
2022-10-22T17:49:53.440Z,14.18
2022-10-22T17:52:24.089Z,14.11
2022-10-22T17:54:54.865Z,14.09
2022-10-22T17:57:37.441Z,13.97
2022-10-22T18:00:16.206Z,14.06
2022-10-22T18:02:46.129Z,14.04
2022-10-22T18:05:16.129Z,13.94
2022-10-22T18:07:44.416Z,13.84
2022-10-22T18:12:57.908Z,13.72
2022-10-22T18:15:48.978Z,13.68
2022-10-22T18:21:32.801Z,13.47
2022-10-22T18:24:13.020Z,13.46
2022-10-22T18:26:41.393Z,13.39
2022-10-22T18:29:11.755Z,13.34
2022-10-22T18:31:41.668Z,13.29
2022-10-22T18:34:10.660Z,13.23
2022-10-22T18:36:43.305Z,13.19
2022-10-22T18:39:22.291Z,13.03
2022-10-22T18:41:51.945Z,13.07
2022-10-22T18:44:20.308Z,13.01
2022-10-22T18:46:50.316Z,13.01
2022-10-22T18:49:21.347Z,12.99
2022-10-22T18:52:01.522Z,12.96
2022-10-22T18:54:29.993Z,12.93
2022-10-22T18:57:02.573Z,12.88
2022-10-22T18:59:45.563Z,12.86
2022-10-22T19:02:21.848Z,12.82
2022-10-22T19:04:51.687Z,12.81
2022-10-22T19:07:52.366Z,12.77
2022-10-22T19:10:20.718Z,12.75
2022-10-22T19:12:49.505Z,12.68
2022-10-22T19:18:02.045Z,12.66
2022-10-22T19:20:30.455Z,12.67
2022-10-22T19:23:00.584Z,12.61
2022-10-22T19:25:29.282Z,12.70
2022-10-22T19:27:59.144Z,12.67
2022-10-22T19:30:27.937Z,12.62
2022-10-22T19:32:58.650Z,12.59
2022-10-22T19:35:38.088Z,12.58
2022-10-22T19:38:29.739Z,12.46
2022-10-22T19:41:02.703Z,12.55
2022-10-22T19:43:30.896Z,12.54
2022-10-22T19:46:06.874Z,12.48
2022-10-22T19:48:36.208Z,12.50
2022-10-22T19:51:18.438Z,12.45
2022-10-22T19:54:13.963Z,12.48
2022-10-22T19:56:42.359Z,12.45
2022-10-22T19:59:10.859Z,12.40
2022-10-22T20:01:39.675Z,12.38
2022-10-22T20:04:10.698Z,12.35
2022-10-22T20:06:39.019Z,12.23
2022-10-22T20:09:09.876Z,12.22
2022-10-22T20:11:38.936Z,12.17
2022-10-22T20:14:08.121Z,12.18
2022-10-22T20:16:41.383Z,12.11
2022-10-22T20:19:10.816Z,12.04
2022-10-22T20:21:40.453Z,12.07
2022-10-22T20:24:23.518Z,12.02
2022-10-22T20:26:51.700Z,12.07
2022-10-22T20:29:20.411Z,12.05
2022-10-22T20:31:49.276Z,11.99
2022-10-22T20:34:19.033Z,12.02
2022-10-22T20:36:56.677Z,12.10
2022-10-22T20:39:26.329Z,12.12
2022-10-22T20:41:54.672Z,12.09
2022-10-22T20:44:45.614Z,12.05
2022-10-22T20:47:30.490Z,12.10
2022-10-22T20:50:15.923Z,12.11
2022-10-22T20:52:44.052Z,12.13
2022-10-22T20:57:50.308Z,12.14
2022-10-22T21:00:18.948Z,12.15
2022-10-22T21:02:51.087Z,12.18
2022-10-22T21:05:19.857Z,12.16
2022-10-22T21:07:52.891Z,12.09
2022-10-22T21:10:41.858Z,12.18
2022-10-22T21:13:24.566Z,12.29
2022-10-22T21:15:56.602Z,12.29
2022-10-22T21:18:34.390Z,12.27
2022-10-22T21:21:06.262Z,12.25
2022-10-22T21:23:36.036Z,12.26
2022-10-22T21:26:06.937Z,12.29
2022-10-22T21:28:52.503Z,12.30
2022-10-22T21:31:22.034Z,12.30
2022-10-22T21:33:54.390Z,12.34
2022-10-22T21:36:25.872Z,12.36
2022-10-22T21:39:14.013Z,12.38
2022-10-22T21:41:47.865Z,12.36
2022-10-22T21:44:31.912Z,12.38
2022-10-22T21:47:07.274Z,12.43
2022-10-22T21:49:37.075Z,12.44
2022-10-22T21:52:07.070Z,12.42
2022-10-22T21:54:47.745Z,12.41
2022-10-22T21:57:39.376Z,12.34
2022-10-22T22:00:12.640Z,12.35
2022-10-22T22:02:45.950Z,12.34
2022-10-22T22:05:24.065Z,12.32
2022-10-22T22:08:01.334Z,12.31
2022-10-22T22:10:36.434Z,12.25
2022-10-22T22:13:24.913Z,12.25
2022-10-22T22:16:11.267Z,12.17
2022-10-22T22:18:49.564Z,12.16
2022-10-22T22:21:23.434Z,12.14
2022-10-22T22:24:11.708Z,12.14
2022-10-22T22:29:26.536Z,12.10
2022-10-22T22:31:59.266Z,12.10
2022-10-22T22:34:27.839Z,12.10
2022-10-22T22:36:56.040Z,12.12
2022-10-22T22:39:25.609Z,12.14
2022-10-22T22:41:54.033Z,12.15
2022-10-22T22:44:22.308Z,12.12
2022-10-22T22:46:56.491Z,12.13
2022-10-22T22:52:13.828Z,12.08
2022-10-22T22:54:43.544Z,12.08
2022-10-22T22:57:19.327Z,12.06
2022-10-22T22:59:54.772Z,12.03
2022-10-22T23:02:38.253Z,12.02
2022-10-22T23:05:12.165Z,12.01
2022-10-22T23:07:44.991Z,11.99
2022-10-22T23:10:14.761Z,11.96
2022-10-22T23:12:43.263Z,11.88
2022-10-22T23:15:19.621Z,11.93
2022-10-22T23:18:05.843Z,11.95
2022-10-22T23:23:51.046Z,11.88
2022-10-22T23:26:24.596Z,11.89
2022-10-22T23:28:53.085Z,11.84
2022-10-22T23:31:23.855Z,11.86
2022-10-22T23:33:57.557Z,11.86
2022-10-22T23:36:28.475Z,11.87
2022-10-22T23:38:56.857Z,11.86
2022-10-22T23:41:32.254Z,11.87
2022-10-22T23:44:04.130Z,11.82
2022-10-22T23:46:35.654Z,11.87
2022-10-22T23:49:09.603Z,11.85
2022-10-22T23:51:45.758Z,11.84
2022-10-22T23:54:17.943Z,11.88
2022-10-22T23:56:50.383Z,11.89
2022-10-22T23:59:18.701Z,11.89
